KOTM/OTM METAR and TAF weather

Enter ICAO airport designator
Station Type Date Time Source
KOTM METAR 2021/06/24 05:53 UTC NOAA

KOTM 240553Z AUTO 17011KT 10SM CLR 22/16 A2988 RMK AO2 SLP111 T02220156 10272 20222 402830156 58002


Station Type Date Time Source
KOTM Decoded METAR 2021/06/24 05:53 UTC NOAA

OTTUMWA INDUSTRIAL AIRPORT, IA, United States (KOTM) 41-06N 092-27W 256M
Jun 24, 2021 - 01:53 AM EDT / 2021.06.24 0553 UTC
Wind: from the S (170 degrees) at 13 MPH (11 KT):0
Visibility: 10 mile(s):0
Sky conditions: clear
Temperature: 72.0 F (22.2 C)
Dew Point: 60.1 F (15.6 C)
Relative Humidity: 66%
Pressure (altimeter): 29.88 in. Hg (1011 hPa)
Pressure tendency: 0.01 inches (0.2 hPa) lower than three hours ago
ob: KOTM 240553Z AUTO 17011KT 10SM CLR 22/16 A2988 RMK AO2 SLP111 T02220156 10272 20222 402830156 58002
cycle: 6

Station Type Date Time Source
KOTM TAF 2021/06/24 06:33 UTC NOAA

TAF KOTM 240530Z 2406/2506 17009KT P6SM SKC
FM241200 18011G19KT P6SM VCTS BKN060CB
FM241400 17009KT 6SM -TSRA BR BKN040CB
FM241700 17010KT P6SM BKN080
FM250300 15009KT 6SM SHRA BR VCTS BKN040CB

Example: see airport list